Time;durP1;ratioP1;P1;durP2;ratioP2;P2;SDS_P1;SDS_P2;PMS_P1;PMS_P2;Temp;Humidity;BMP_temperature;BMP_pressure;BME280_temperature;BME280_humidity;BME280_pressure;Samples;Min_cycle;Max_cycle;Signal;HPM_P1;HPM_P2
2021/10/21 00:01:27;;;;;;;3.47;1.70;;;14.30;99.90;;;;;;4977485;28;20039;-80
2021/10/21 00:03:52;;;;;;;2.83;1.40;;;14.30;99.90;;;;;;4974945;28;20102;-80
2021/10/21 00:06:18;;;;;;;3.60;1.70;;;14.20;99.90;;;;;;4977824;28;20039;-81
2021/10/21 00:08:45;;;;;;;3.40;1.58;;;14.30;99.90;;;;;;4969814;28;20035;-81
2021/10/21 00:11:11;;;;;;;3.55;1.60;;;14.30;99.90;;;;;;4963182;28;20051;-81
2021/10/21 00:13:37;;;;;;;3.17;1.33;;;14.20;99.90;;;;;;4963855;28;20526;-81
2021/10/21 00:16:03;;;;;;;3.67;1.83;;;14.10;99.90;;;;;;4964282;29;20045;-81
2021/10/21 00:18:29;;;;;;;3.45;1.83;;;14.10;99.90;;;;;;4966442;28;20387;-81
2021/10/21 00:20:54;;;;;;;3.28;1.48;;;14.10;99.90;;;;;;4958684;28;20488;-81
2021/10/21 00:23:20;;;;;;;3.47;1.80;;;14.00;99.90;;;;;;4987139;28;20037;-80
2021/10/21 00:25:45;;;;;;;3.35;1.58;;;14.00;99.90;;;;;;4972158;28;20079;-80
2021/10/21 00:28:12;;;;;;;3.78;1.85;;;14.00;99.90;;;;;;4954433;29;20099;-80
2021/10/21 00:30:38;;;;;;;3.80;1.70;;;13.90;99.90;;;;;;4952776;29;20155;-80
2021/10/21 00:33:04;;;;;;;3.38;2.10;;;13.90;99.90;;;;;;4970529;28;20432;-81
2021/10/21 00:35:30;;;;;;;5.82;1.88;;;13.90;99.90;;;;;;4953431;29;20126;-81
2021/10/21 00:37:55;;;;;;;3.70;1.95;;;13.80;99.90;;;;;;4942732;29;20034;-81
2021/10/21 00:40:22;;;;;;;3.38;1.42;;;13.80;99.90;;;;;;4942174;29;20108;-82
2021/10/21 00:42:51;;;;;;;4.35;2.10;;;13.80;99.90;;;;;;4947308;28;20070;-81
2021/10/21 00:45:17;;;;;;;3.22;1.83;;;13.80;99.90;;;;;;4940978;29;20036;-81
2021/10/21 00:47:42;;;;;;;3.97;2.08;;;13.80;99.90;;;;;;4942787;29;20046;-81
2021/10/21 00:50:08;;;;;;;4.22;2.17;;;13.80;99.90;;;;;;4942413;29;20110;-81
2021/10/21 00:52:34;;;;;;;4.30;2.30;;;13.80;99.90;;;;;;4943100;28;20043;-80
2021/10/21 00:55:00;;;;;;;5.95;2.10;;;13.80;99.90;;;;;;4961977;28;20039;-81
2021/10/21 00:57:27;;;;;;;4.43;2.30;;;13.70;99.90;;;;;;4963564;28;20034;-82
2021/10/21 00:59:53;;;;;;;4.13;2.28;;;13.70;99.90;;;;;;4944879;28;20058;-81
2021/10/21 01:02:18;;;;;;;3.80;2.03;;;13.70;99.90;;;;;;4934939;29;20193;-81
2021/10/21 01:04:44;;;;;;;4.32;2.28;;;13.70;99.90;;;;;;4942359;29;20511;-82
2021/10/21 01:07:10;;;;;;;5.53;2.20;;;13.70;99.90;;;;;;4942907;29;20046;-82
2021/10/21 01:09:37;;;;;;;4.65;1.92;;;13.70;99.90;;;;;;4942169;29;20054;-82
2021/10/21 01:12:04;;;;;;;4.10;2.30;;;13.70;99.90;;;;;;4943356;28;20040;-81
2021/10/21 01:14:30;;;;;;;4.45;2.10;;;13.70;99.90;;;;;;4940334;29;20109;-82
2021/10/21 01:16:56;;;;;;;3.72;1.90;;;13.60;99.90;;;;;;4946210;28;20055;-81
2021/10/21 01:19:24;;;;;;;5.22;2.35;;;13.60;99.90;;;;;;4956667;28;20063;-81
2021/10/21 01:21:52;;;;;;;4.38;2.40;;;13.50;99.90;;;;;;4940248;29;20038;-81
2021/10/21 01:24:19;;;;;;;6.43;2.28;;;13.50;99.90;;;;;;4952061;28;20115;-81
2021/10/21 01:26:50;;;;;;;4.95;2.00;;;13.40;99.90;;;;;;4958860;28;20050;-81
2021/10/21 01:29:17;;;;;;;4.53;1.90;;;13.40;99.90;;;;;;4961895;28;20038;-81
2021/10/21 01:31:44;;;;;;;4.57;2.15;;;13.40;99.90;;;;;;4960690;28;20090;-81
2021/10/21 01:34:11;;;;;;;6.35;2.78;;;13.40;99.90;;;;;;4946867;28;20039;-81
2021/10/21 01:36:38;;;;;;;4.35;2.35;;;13.30;99.90;;;;;;4941934;29;20031;-82
2021/10/21 01:39:05;;;;;;;5.57;2.42;;;13.30;99.90;;;;;;4924075;29;20031;-81
2021/10/21 01:41:31;;;;;;;4.43;2.42;;;13.30;99.90;;;;;;4923639;29;20035;-82
2021/10/21 01:43:57;;;;;;;4.00;2.00;;;13.20;99.90;;;;;;4941441;29;20099;-82
2021/10/21 01:46:23;;;;;;;9.32;2.47;;;13.20;99.90;;;;;;4941380;28;20035;-82
2021/10/21 01:48:48;;;;;;;5.28;2.42;;;13.20;99.90;;;;;;4971350;28;20480;-81
2021/10/21 01:51:14;;;;;;;5.25;2.30;;;13.20;99.90;;;;;;4969738;28;20046;-81
2021/10/21 01:53:41;;;;;;;5.35;2.13;;;13.20;99.90;;;;;;4941754;29;20134;-82
2021/10/21 01:56:07;;;;;;;4.88;2.38;;;13.20;99.90;;;;;;4959922;28;20042;-81
2021/10/21 01:58:33;;;;;;;4.57;2.30;;;13.20;99.90;;;;;;4958026;28;20027;-82
2021/10/21 02:00:59;;;;;;;5.00;2.17;;;13.20;99.90;;;;;;4940895;29;20436;-81
2021/10/21 02:03:25;;;;;;;4.28;2.28;;;13.20;99.90;;;;;;4941307;29;20133;-81
2021/10/21 02:05:50;;;;;;;5.18;2.20;;;13.20;99.90;;;;;;4958875;28;20027;-81
2021/10/21 02:08:16;;;;;;;3.97;1.90;;;13.20;99.90;;;;;;4940727;29;20034;-80
2021/10/21 02:10:41;;;;;;;4.57;2.00;;;13.20;99.90;;;;;;4948624;28;20158;-81
2021/10/21 02:13:18;;;;;;;4.70;2.28;;;13.20;99.90;;;;;;4988762;22;20055;-88
2021/10/21 02:15:44;;;;;;;4.63;1.80;;;14.20;99.90;;;;;;4927706;29;20046;-88
2021/10/21 02:18:21;;;;;;;4.22;1.90;;;13.30;99.90;;;;;;4930862;29;20059;-89
2021/10/21 02:20:47;;;;;;;3.75;1.80;;;13.30;99.90;;;;;;4929483;29;20047;-88
2021/10/21 02:23:15;;;;;;;4.35;1.75;;;13.30;99.90;;;;;;4922907;29;20063;-89
2021/10/21 02:25:41;;;;;;;4.78;1.90;;;13.50;99.90;;;;;;4949086;28;20016;-89
2021/10/21 02:28:07;;;;;;;3.92;1.60;;;13.30;99.90;;;;;;4951879;28;20163;-89
2021/10/21 02:30:35;;;;;;;5.55;1.70;;;13.80;99.90;;;;;;4936859;29;20519;-88
2021/10/21 02:33:01;;;;;;;3.53;1.60;;;13.30;99.90;;;;;;4946417;28;20040;-88
2021/10/21 02:35:36;;;;;;;3.10;1.40;;;13.40;99.90;;;;;;4920467;29;20043;-89
2021/10/21 02:38:04;;;;;;;3.50;1.55;;;13.60;99.90;;;;;;4917539;29;20028;-89
2021/10/21 02:40:35;;;;;;;5.97;1.83;;;13.40;99.90;;;;;;4917329;29;20051;-88
2021/10/21 02:43:01;;;;;;;3.63;1.83;;;13.40;99.90;;;;;;4936198;29;20038;-88
2021/10/21 02:46:10;;;;;;;4.55;1.70;;;13.60;99.90;;;;;;4935713;29;20127;-89
2021/10/21 02:48:43;;;;;;;3.97;2.05;;;13.60;99.90;;;;;;4918408;29;20028;-89
2021/10/21 02:51:35;;;;;;;4.82;2.05;;;13.60;99.90;;;;;;4915330;29;20035;-88
2021/10/21 02:54:18;;;;;;;3.60;1.90;;;13.70;99.90;;;;;;4897468;29;20112;-88
2021/10/21 02:57:01;;;;;;;3.83;1.77;;;13.60;99.90;;;;;;4899422;29;20028;-88
2021/10/21 03:02:58;;;;;;;3.45;1.60;;;13.70;99.90;;;;;;4926285;29;20032;-88
2021/10/21 03:05:26;;;;;;;4.03;2.00;;;13.80;99.90;;;;;;4922250;29;20025;-88
2021/10/21 03:08:34;;;;;;;3.78;1.60;;;13.90;99.90;;;;;;4920221;29;20040;-88
2021/10/21 03:11:51;;;;;;;3.83;1.50;;;14.00;99.90;;;;;;4934083;29;20119;-88
2021/10/21 03:14:17;;;;;;;3.50;1.45;;;13.90;99.90;;;;;;4928466;29;20044;-89
2021/10/21 03:16:43;;;;;;;3.78;1.52;;;13.90;99.90;;;;;;4939435;29;20039;-87
2021/10/21 03:19:09;;;;;;;2.85;1.30;;;14.70;99.90;;;;;;4947031;28;20347;-87
2021/10/21 03:21:35;;;;;;;4.32;1.88;;;14.10;99.90;;;;;;4919506;29;20028;-89
2021/10/21 03:29:56;;;;;;;3.08;1.48;;;14.10;99.90;;;;;;4922362;29;20047;-87
2021/10/21 03:32:22;;;;;;;2.40;1.13;;;14.10;99.90;;;;;;4950059;29;20035;-88
2021/10/21 03:34:47;;;;;;;3.17;1.23;;;14.50;99.90;;;;;;4960587;28;20051;-88
2021/10/21 03:37:13;;;;;;;1.70;0.77;;;14.70;99.90;;;;;;4921299;29;20040;-88
2021/10/21 03:39:39;;;;;;;2.15;0.63;;;14.00;99.90;;;;;;4900096;29;20036;-89
2021/10/21 03:42:08;;;;;;;1.52;0.52;;;14.30;99.90;;;;;;4900878;29;20057;-88
2021/10/21 03:44:37;;;;;;;2.60;0.90;;;14.10;99.90;;;;;;4916875;29;20044;-87
2021/10/21 03:47:04;;;;;;;1.08;0.55;;;14.10;99.90;;;;;;4919741;29;20032;-86
2021/10/21 03:49:32;;;;;;;1.10;0.47;;;14.10;99.90;;;;;;4920590;29;20028;-88
2021/10/21 03:52:06;;;;;;;1.00;0.40;;;13.70;99.90;;;;;;4920771;29;20036;-87
2021/10/21 03:54:40;;;;;;;2.10;0.38;;;14.10;99.90;;;;;;4919492;29;20036;-87
2021/10/21 03:57:18;;;;;;;1.35;0.40;;;14.50;99.90;;;;;;4931403;29;20040;-87
2021/10/21 03:59:49;;;;;;;0.85;0.30;;;14.10;99.90;;;;;;4930242;29;20028;-88
2021/10/21 04:02:14;;;;;;;1.13;0.40;;;14.50;99.90;;;;;;4940623;29;20032;-87
2021/10/21 04:04:48;;;;;;;1.27;0.30;;;14.10;99.90;;;;;;4955453;28;20028;-88
2021/10/21 04:07:13;;;;;;;0.98;0.30;;;14.10;99.90;;;;;;4920660;29;20028;-85
2021/10/21 04:09:39;;;;;;;2.47;0.52;;;14.10;99.90;;;;;;4912483;29;20035;-85
2021/10/21 04:12:05;;;;;;;1.05;0.25;;;14.20;99.90;;;;;;4918297;29;20083;-84
2021/10/21 04:14:31;;;;;;;0.57;0.20;;;14.10;99.90;;;;;;4942303;28;20374;-85
2021/10/21 04:16:57;;;;;;;1.15;0.20;;;14.00;99.90;;;;;;4929985;29;20032;-85
2021/10/21 04:19:22;;;;;;;0.95;0.28;;;14.20;99.90;;;;;;4930097;29;20030;-85
2021/10/21 04:21:48;;;;;;;0.20;0.20;;;14.40;99.90;;;;;;4921388;29;20034;-87
2021/10/21 04:24:13;;;;;;;0.30;0.20;;;14.00;99.90;;;;;;4947108;28;20019;-84
2021/10/21 04:26:39;;;;;;;0.85;0.20;;;14.00;99.90;;;;;;4938346;29;20038;-88
2021/10/21 04:29:06;;;;;;;0.45;0.20;;;14.50;99.90;;;;;;4911190;29;20036;-89
2021/10/21 04:31:32;;;;;;;0.52;0.20;;;14.00;99.90;;;;;;4918233;29;20039;-85
2021/10/21 04:33:58;;;;;;;0.25;0.10;;;13.80;99.90;;;;;;4916634;29;20035;-84
2021/10/21 04:36:23;;;;;;;1.58;0.25;;;13.90;99.90;;;;;;4937604;28;20039;-86
2021/10/21 04:38:49;;;;;;;0.32;0.13;;;13.70;99.90;;;;;;4912774;29;20036;-86
2021/10/21 04:41:15;;;;;;;0.85;0.10;;;13.80;99.90;;;;;;4904275;29;20346;-86
2021/10/21 04:43:40;;;;;;;1.92;0.32;;;13.70;99.90;;;;;;4904190;29;20016;-88
2021/10/21 04:46:06;;;;;;;0.30;0.05;;;13.70;99.90;;;;;;4910809;29;20063;-85
2021/10/21 04:48:32;;;;;;;2.72;0.20;;;13.60;99.90;;;;;;4911847;29;20025;-88
2021/10/21 04:50:57;;;;;;;1.05;0.30;;;13.60;99.90;;;;;;4902313;29;20153;-83
2021/10/21 04:53:23;;;;;;;0.85;0.30;;;13.60;99.90;;;;;;4912552;29;20027;-90
2021/10/21 04:55:49;;;;;;;1.08;0.20;;;13.40;99.90;;;;;;4917698;29;20031;-85
2021/10/21 04:58:14;;;;;;;0.25;0.10;;;13.50;99.90;;;;;;4899515;29;20036;-84
2021/10/21 05:00:40;;;;;;;1.95;0.10;;;13.50;99.90;;;;;;4905939;29;20039;-83
2021/10/21 05:03:08;;;;;;;0.93;0.10;;;13.50;99.90;;;;;;4898646;29;20032;-86
2021/10/21 05:05:34;;;;;;;0.75;0.10;;;13.30;99.90;;;;;;4912997;29;20492;-86
2021/10/21 05:07:59;;;;;;;1.20;0.20;;;13.30;99.90;;;;;;4911428;29;20033;-90
2021/10/21 05:10:30;;;;;;;0.35;0.10;;;13.20;99.90;;;;;;4926190;29;20036;-89
2021/10/21 05:12:56;;;;;;;0.40;0.10;;;12.90;99.90;;;;;;4942541;29;20039;-89
2021/10/21 05:15:23;;;;;;;0.35;0.10;;;13.10;99.90;;;;;;4925607;29;20040;-88
2021/10/21 05:17:49;;;;;;;1.13;0.10;;;13.00;99.90;;;;;;4940952;29;20051;-86
2021/10/21 05:20:58;;;;;;;0.63;0.20;;;12.70;99.90;;;;;;4969020;28;20039;-86
2021/10/21 05:23:55;;;;;;;0.10;0.00;;;12.90;99.90;;;;;;4930921;28;20039;-87
2021/10/21 05:26:35;;;;;;;0.10;0.00;;;13.10;99.90;;;;;;4926256;29;20433;-86
2021/10/21 05:29:15;;;;;;;1.85;0.10;;;12.80;99.90;;;;;;4939455;29;20035;-86
2021/10/21 05:32:17;;;;;;;4.28;0.30;;;12.80;99.90;;;;;;4920069;29;20123;-86
2021/10/21 05:34:52;;;;;;;0.70;0.10;;;12.80;99.90;;;;;;4923621;29;20020;-85
2021/10/21 05:37:23;;;;;;;0.60;0.10;;;13.80;99.90;;;;;;4918666;29;20123;-87
2021/10/21 05:39:49;;;;;;;1.40;0.00;;;12.50;99.90;;;;;;4930881;29;20032;-86
2021/10/21 05:42:20;;;;;;;1.35;0.10;;;12.70;99.90;;;;;;4920343;29;20264;-86
2021/10/21 05:44:49;;;;;;;0.63;0.20;;;12.70;99.90;;;;;;4920058;29;20024;-86
2021/10/21 05:47:18;;;;;;;1.60;0.28;;;12.70;99.90;;;;;;4908298;29;20021;-86
2021/10/21 05:49:45;;;;;;;1.83;0.30;;;12.60;99.90;;;;;;4922353;29;20068;-88
2021/10/21 05:52:13;;;;;;;2.08;0.30;;;12.60;99.90;;;;;;4925593;29;20183;-86
2021/10/21 05:54:40;;;;;;;1.40;0.20;;;12.70;99.90;;;;;;4903564;29;20037;-86
2021/10/21 05:57:06;;;;;;;0.65;0.05;;;12.20;99.90;;;;;;4897942;29;20025;-87
2021/10/21 05:59:31;;;;;;;0.77;0.30;;;12.40;99.90;;;;;;4906317;29;20170;-86
2021/10/21 06:01:57;;;;;;;0.98;0.17;;;12.80;99.90;;;;;;4914483;29;20024;-86
2021/10/21 06:04:23;;;;;;;3.08;0.30;;;12.60;99.90;;;;;;4904566;29;20020;-85
2021/10/21 06:06:48;;;;;;;2.35;0.30;;;12.60;99.90;;;;;;4900883;29;20029;-86
2021/10/21 06:09:14;;;;;;;1.95;0.22;;;12.40;99.90;;;;;;4912388;29;20037;-85
2021/10/21 06:11:39;;;;;;;1.13;0.20;;;12.50;99.90;;;;;;4924965;29;20031;-85
2021/10/21 06:14:06;;;;;;;2.50;0.30;;;12.40;99.90;;;;;;4917136;29;20045;-86
2021/10/21 06:16:33;;;;;;;2.13;0.30;;;12.40;99.90;;;;;;4931113;29;20420;-85
2021/10/21 06:18:59;;;;;;;0.43;0.10;;;12.40;99.90;;;;;;4917741;29;20028;-85
2021/10/21 06:21:27;;;;;;;0.40;0.10;;;12.30;99.90;;;;;;4915838;29;20039;-85
2021/10/21 06:23:53;;;;;;;0.70;0.25;;;12.30;99.90;;;;;;4908724;29;20040;-86
2021/10/21 06:26:19;;;;;;;3.55;0.50;;;12.30;99.90;;;;;;4920375;29;20095;-86
2021/10/21 06:28:47;;;;;;;0.70;0.17;;;12.30;99.90;;;;;;4949079;28;20099;-85
2021/10/21 06:31:14;;;;;;;0.95;0.15;;;12.30;99.90;;;;;;4925549;29;20028;-85
2021/10/21 06:33:43;;;;;;;1.95;0.30;;;12.30;99.90;;;;;;4920931;29;20038;-88
2021/10/21 06:36:10;;;;;;;2.45;0.57;;;12.30;99.90;;;;;;4949225;28;20075;-86
2021/10/21 06:38:35;;;;;;;1.20;0.05;;;12.30;99.90;;;;;;4948183;28;20027;-88
2021/10/21 06:41:02;;;;;;;1.05;0.50;;;11.90;99.90;;;;;;4925467;29;20027;-87
2021/10/21 06:43:28;;;;;;;0.38;0.10;;;12.20;99.90;;;;;;4931377;29;20064;-88
2021/10/21 06:45:54;;;;;;;1.73;0.30;;;12.30;99.90;;;;;;4954236;29;20034;-87
2021/10/21 06:48:20;;;;;;;1.10;0.17;;;12.30;99.90;;;;;;4954375;28;20043;-85
2021/10/21 06:50:46;;;;;;;3.60;0.25;;;12.40;99.90;;;;;;4932299;29;20398;-87
2021/10/21 06:53:11;;;;;;;1.35;0.20;;;11.90;99.90;;;;;;4923981;29;20031;-86
2021/10/21 06:55:38;;;;;;;0.82;0.10;;;12.50;99.90;;;;;;4947035;28;20027;-87
2021/10/21 06:58:04;;;;;;;0.80;0.20;;;12.50;99.90;;;;;;4922906;29;20050;-87
2021/10/21 07:00:40;;;;;;;2.72;0.35;;;12.40;99.90;;;;;;4951328;28;20539;-86
2021/10/21 07:03:06;;;;;;;1.60;0.28;;;12.40;99.90;;;;;;4946159;28;20039;-87
2021/10/21 07:05:38;;;;;;;1.63;0.20;;;12.50;99.90;;;;;;4922484;29;20115;-88
2021/10/21 07:08:06;;;;;;;1.30;0.10;;;12.50;99.90;;;;;;4918073;29;20036;-88
2021/10/21 07:10:33;;;;;;;3.63;0.47;;;12.60;99.90;;;;;;4932017;29;20040;-87
2021/10/21 07:13:02;;;;;;;3.83;0.30;;;12.60;99.90;;;;;;4931493;29;20046;-87
2021/10/21 07:15:28;;;;;;;1.60;0.10;;;12.70;99.90;;;;;;4931411;29;20098;-87
2021/10/21 07:17:54;;;;;;;4.53;0.40;;;13.20;99.90;;;;;;4951572;29;20047;-88
2021/10/21 07:20:20;;;;;;;0.88;0.15;;;12.70;99.90;;;;;;4954403;28;20031;-88
2021/10/21 07:22:46;;;;;;;0.73;0.10;;;12.70;99.90;;;;;;4950924;28;20036;-88
2021/10/21 07:25:11;;;;;;;3.85;0.40;;;12.80;99.90;;;;;;4932745;29;20031;-86
2021/10/21 07:27:38;;;;;;;0.95;0.45;;;12.80;99.90;;;;;;4932574;29;20063;-87
2021/10/21 07:30:06;;;;;;;1.83;0.30;;;12.80;99.90;;;;;;4915361;29;20508;-87
2021/10/21 07:32:33;;;;;;;1.20;0.10;;;12.80;99.90;;;;;;4928246;29;20123;-88
2021/10/21 07:34:59;;;;;;;2.88;0.20;;;12.90;99.90;;;;;;4925290;29;20028;-86
2021/10/21 07:37:28;;;;;;;0.98;0.30;;;12.80;99.90;;;;;;4918122;29;20473;-88
2021/10/21 07:39:54;;;;;;;1.08;0.15;;;12.90;99.90;;;;;;4915613;29;20111;-88
2021/10/21 07:42:20;;;;;;;1.80;0.10;;;12.90;99.90;;;;;;4925484;29;20131;-87
2021/10/21 07:44:49;;;;;;;1.70;0.30;;;12.90;99.90;;;;;;4928068;29;20503;-87
2021/10/21 07:47:18;;;;;;;3.28;0.30;;;12.90;99.90;;;;;;4915741;29;20032;-87
2021/10/21 07:49:46;;;;;;;1.25;0.13;;;13.00;99.90;;;;;;4921471;29;20567;-88
2021/10/21 07:52:17;;;;;;;2.25;0.20;;;13.00;99.90;;;;;;4933871;29;20032;-87
2021/10/21 07:54:44;;;;;;;0.52;0.10;;;13.00;99.90;;;;;;4917714;29;20437;-88
2021/10/21 07:57:13;;;;;;;1.80;0.10;;;13.30;99.90;;;;;;4951829;28;20043;-88
2021/10/21 07:59:38;;;;;;;1.65;0.30;;;13.00;99.90;;;;;;4940218;28;20020;-88
2021/10/21 08:02:04;;;;;;;0.95;0.17;;;12.80;99.90;;;;;;4911506;29;20091;-87
2021/10/21 08:04:34;;;;;;;1.00;0.10;;;13.10;99.90;;;;;;4916120;29;20370;-88
2021/10/21 08:07:02;;;;;;;3.20;0.08;;;13.10;99.90;;;;;;4906745;29;20123;-89
2021/10/21 08:09:30;;;;;;;0.60;0.00;;;13.20;99.90;;;;;;4905928;29;20032;-87
2021/10/21 08:11:57;;;;;;;0.20;0.00;;;13.20;99.90;;;;;;4902888;29;20029;-88
2021/10/21 08:14:23;;;;;;;0.52;0.17;;;13.30;99.90;;;;;;4929353;29;20513;-88
2021/10/21 08:16:48;;;;;;;1.48;0.10;;;13.40;99.90;;;;;;4914084;29;20032;-86
2021/10/21 08:19:15;;;;;;;0.00;0.00;;;13.40;99.90;;;;;;4916182;29;20448;-88
2021/10/21 08:21:41;;;;;;;0.10;0.00;;;13.40;99.90;;;;;;4916057;29;20032;-87
2021/10/21 08:24:08;;;;;;;1.73;0.77;;;13.40;99.90;;;;;;4912582;29;20036;-88
2021/10/21 08:26:34;;;;;;;0.45;0.08;;;13.40;99.90;;;;;;4918780;29;20087;-88
2021/10/21 08:29:00;;;;;;;0.55;0.08;;;14.20;99.90;;;;;;4902531;29;20029;-88
2021/10/21 08:31:26;;;;;;;2.03;0.38;;;13.40;99.90;;;;;;4912833;29;20035;-88
2021/10/21 08:33:52;;;;;;;2.10;0.28;;;13.50;99.90;;;;;;4915715;29;20068;-89
2021/10/21 08:36:18;;;;;;;2.22;0.05;;;14.20;99.90;;;;;;4914490;29;20039;-88
2021/10/21 08:38:44;;;;;;;0.45;0.08;;;13.10;99.90;;;;;;4913961;29;20032;-88
2021/10/21 08:41:15;;;;;;;0.93;0.03;;;14.60;99.90;;;;;;4911937;29;20119;-88
2021/10/21 08:43:45;;;;;;;3.13;0.10;;;13.50;99.90;;;;;;4920526;29;20028;-88
2021/10/21 08:46:13;;;;;;;1.25;0.20;;;13.50;99.90;;;;;;4916347;29;20028;-87
2021/10/21 08:48:41;;;;;;;0.50;0.00;;;13.40;99.90;;;;;;4917801;28;20538;-87
2021/10/21 08:51:07;;;;;;;0.22;0.05;;;13.40;99.90;;;;;;4905235;29;20036;-88
2021/10/21 08:53:34;;;;;;;0.35;0.08;;;13.30;99.90;;;;;;4918154;29;20091;-86
2021/10/21 08:56:00;;;;;;;1.20;0.10;;;13.40;99.90;;;;;;4919449;29;20580;-87
2021/10/21 08:58:27;;;;;;;0.43;0.00;;;13.40;99.90;;;;;;4927470;29;20039;-87
2021/10/21 09:01:06;;;;;;;0.50;0.10;;;13.70;99.90;;;;;;4914325;29;20677;-87
2021/10/21 09:04:03;;;;;;;3.88;0.20;;;13.30;99.90;;;;;;4911846;29;20087;-86
2021/10/21 09:06:49;;;;;;;0.68;0.10;;;13.00;99.90;;;;;;4911382;29;20451;-85
2021/10/21 09:09:23;;;;;;;0.68;0.08;;;12.90;99.90;;;;;;4897585;29;20060;-87
2021/10/21 09:12:04;;;;;;;0.55;0.10;;;12.80;99.90;;;;;;4899083;29;20028;-88
2021/10/21 09:14:35;;;;;;;0.10;0.00;;;12.90;99.90;;;;;;4922026;29;20951;-87
2021/10/21 09:17:02;;;;;;;0.50;0.20;;;13.00;99.90;;;;;;4920479;29;20397;-87
2021/10/21 09:19:28;;;;;;;0.90;0.10;;;12.90;99.90;;;;;;4912665;29;20038;-86
2021/10/21 09:21:55;;;;;;;0.10;0.05;;;12.90;99.90;;;;;;4917169;29;20062;-88
2021/10/21 09:24:35;;;;;;;0.43;0.00;;;12.80;99.90;;;;;;4910749;29;20172;-87
2021/10/21 09:27:17;;;;;;;0.50;0.00;;;12.70;99.90;;;;;;4921339;29;20040;-88
2021/10/21 09:29:55;;;;;;;0.10;0.00;;;12.70;99.90;;;;;;4906941;29;20085;-87
2021/10/21 09:32:24;;;;;;;1.55;0.00;;;12.70;99.90;;;;;;4900046;29;20178;-87
2021/10/21 09:35:01;;;;;;;0.93;0.30;;;12.70;99.90;;;;;;4911736;29;20225;-86
2021/10/21 09:37:30;;;;;;;0.05;0.00;;;12.70;99.90;;;;;;4897956;29;20035;-86
2021/10/21 09:40:01;;;;;;;0.15;0.00;;;12.70;99.90;;;;;;4897470;29;20375;-84
2021/10/21 09:42:29;;;;;;;0.60;0.00;;;12.70;99.90;;;;;;4899977;29;20518;-87
2021/10/21 09:45:23;;;;;;;0.22;0.05;;;12.80;99.90;;;;;;4911564;29;20027;-89
2021/10/21 09:47:55;;;;;;;0.00;0.00;;;12.80;99.90;;;;;;4910811;29;20024;-87
2021/10/21 09:50:31;;;;;;;0.00;0.00;;;12.80;99.90;;;;;;4910733;29;20024;-87
2021/10/21 09:53:06;;;;;;;1.45;0.10;;;12.60;99.90;;;;;;4908456;29;20032;-85
2021/10/21 09:55:33;;;;;;;0.28;0.05;;;12.30;99.90;;;;;;4911086;29;20033;-86
2021/10/21 09:58:00;;;;;;;1.52;0.38;;;12.30;99.90;;;;;;4897185;29;20045;-86
2021/10/21 10:00:32;;;;;;;0.40;0.00;;;12.30;99.90;;;;;;4896319;29;20039;-85
2021/10/21 10:03:11;;;;;;;0.47;0.00;;;12.20;99.90;;;;;;4901799;29;20020;-85
2021/10/21 10:05:51;;;;;;;0.00;0.00;;;12.20;99.90;;;;;;4898016;29;20032;-86
2021/10/21 10:08:22;;;;;;;0.32;0.00;;;12.10;99.90;;;;;;4911304;29;20446;-87
2021/10/21 10:10:50;;;;;;;0.00;0.00;;;12.10;99.90;;;;;;4978810;23;20487;-81
2021/10/21 10:13:19;;;;;;;0.10;0.00;;;12.00;99.90;;;;;;4987037;28;20080;-81
2021/10/21 10:15:47;;;;;;;0.00;0.00;;;12.00;99.90;;;;;;4992724;28;20029;-81
2021/10/21 10:18:18;;;;;;;0.25;0.10;;;12.00;99.90;;;;;;4993726;28;20031;-80
2021/10/21 10:21:06;;;;;;;0.10;0.00;;;12.10;99.90;;;;;;4972939;28;20638;-82
2021/10/21 10:23:33;;;;;;;0.20;0.00;;;12.20;99.90;;;;;;4970196;28;20113;-81
2021/10/21 10:26:01;;;;;;;0.32;0.03;;;12.30;99.90;;;;;;4980220;28;20058;-81
2021/10/21 10:28:50;;;;;;;9.35;0.13;;;12.40;99.90;;;;;;4979801;28;20031;-82
2021/10/21 10:31:56;;;;;;;0.08;0.00;;;12.50;99.90;;;;;;4979220;28;20038;-83
2021/10/21 10:34:35;;;;;;;0.05;0.00;;;12.50;99.90;;;;;;4979407;28;20023;-82
2021/10/21 10:37:12;;;;;;;0.08;0.00;;;12.40;99.90;;;;;;4958401;29;20158;-82
2021/10/21 10:39:55;;;;;;;0.00;0.00;;;12.50;99.90;;;;;;4959989;28;20054;-81
2021/10/21 10:42:30;;;;;;;1.17;0.10;;;12.60;99.90;;;;;;4965774;28;20022;-80
2021/10/21 10:44:59;;;;;;;0.52;0.10;;;12.70;99.90;;;;;;4974003;28;20094;-80
2021/10/21 10:47:47;;;;;;;0.10;0.00;;;12.70;99.90;;;;;;5010100;28;20132;-81
2021/10/21 10:50:25;;;;;;;0.08;0.00;;;12.80;99.90;;;;;;4995777;28;20455;-81
2021/10/21 10:52:54;;;;;;;0.65;0.05;;;12.90;99.90;;;;;;4979836;28;20527;-82
2021/10/21 10:55:35;;;;;;;0.93;0.10;;;12.80;99.90;;;;;;4962295;28;20046;-82
2021/10/21 10:58:01;;;;;;;0.43;0.15;;;12.80;99.90;;;;;;4975013;28;20059;-79
2021/10/21 11:00:45;;;;;;;1.55;0.20;;;12.80;99.90;;;;;;4976715;28;20084;-79
2021/10/21 11:03:13;;;;;;;0.98;0.00;;;12.90;99.90;;;;;;4980475;28;20030;-80
2021/10/21 11:05:45;;;;;;;0.35;0.10;;;12.90;99.90;;;;;;4975526;28;20057;-80
2021/10/21 11:08:12;;;;;;;0.57;0.10;;;12.90;99.90;;;;;;4982859;28;20023;-79
2021/10/21 11:10:41;;;;;;;1.50;0.20;;;13.10;99.90;;;;;;4982251;28;20030;-82
2021/10/21 11:13:25;;;;;;;0.10;0.00;;;13.10;99.90;;;;;;4980822;28;20026;-81
2021/10/21 11:15:52;;;;;;;1.15;0.10;;;13.20;99.90;;;;;;4980581;28;20049;-79
2021/10/21 11:18:41;;;;;;;0.80;0.10;;;13.30;99.90;;;;;;4961975;28;20055;-81
2021/10/21 11:21:07;;;;;;;0.20;0.15;;;13.30;99.90;;;;;;4943659;28;20052;-81
2021/10/21 11:23:32;;;;;;;0.35;0.05;;;13.40;99.90;;;;;;4982505;28;20086;-79
2021/10/21 11:26:06;;;;;;;1.02;0.08;;;13.50;99.90;;;;;;4967789;28;20018;-79
2021/10/21 11:28:34;;;;;;;2.35;0.10;;;13.50;99.90;;;;;;4957602;28;20034;-81
2021/10/21 11:31:01;;;;;;;0.73;0.20;;;13.30;99.90;;;;;;4973399;28;20035;-80
2021/10/21 11:33:27;;;;;;;1.05;0.13;;;13.40;99.90;;;;;;4957409;28;20035;-80
2021/10/21 11:35:59;;;;;;;1.23;0.50;;;13.40;99.90;;;;;;4985364;28;20031;-82
2021/10/21 11:38:25;;;;;;;0.93;0.10;;;13.60;99.90;;;;;;4993364;28;20432;-82
2021/10/21 11:40:54;;;;;;;0.20;0.00;;;13.70;99.90;;;;;;4970432;28;20038;-82
2021/10/21 11:43:23;;;;;;;0.95;0.10;;;13.70;99.90;;;;;;4977801;28;20039;-81
2021/10/21 11:45:59;;;;;;;0.70;0.20;;;13.70;99.80;;;;;;4960871;28;20034;-80
2021/10/21 11:48:32;;;;;;;1.30;0.25;;;13.70;99.60;;;;;;4953103;28;20062;-81
2021/10/21 11:50:59;;;;;;;0.93;0.10;;;13.70;99.80;;;;;;4959783;28;20023;-82
2021/10/21 11:53:27;;;;;;;0.45;0.10;;;13.80;99.70;;;;;;4976103;28;20026;-81
2021/10/21 11:55:55;;;;;;;1.85;0.40;;;13.90;99.90;;;;;;4977459;28;20022;-81
2021/10/21 11:58:28;;;;;;;1.67;0.10;;;14.10;99.90;;;;;;4975369;28;20047;-82
2021/10/21 12:01:08;;;;;;;0.25;0.10;;;14.20;99.90;;;;;;4956306;28;20475;-81
2021/10/21 12:03:39;;;;;;;0.52;0.30;;;14.20;99.60;;;;;;4958143;28;20022;-82
2021/10/21 12:06:06;;;;;;;0.60;0.28;;;14.30;99.90;;;;;;4967264;28;20103;-81
2021/10/21 12:08:32;;;;;;;0.73;0.08;;;14.30;99.90;;;;;;4982900;28;20029;-83
2021/10/21 12:11:01;;;;;;;0.75;0.10;;;14.60;99.60;;;;;;4957630;28;20102;-81
2021/10/21 12:13:35;;;;;;;0.65;0.20;;;14.80;99.70;;;;;;4983974;28;20023;-82
2021/10/21 12:16:10;;;;;;;0.75;0.05;;;14.90;99.60;;;;;;4959769;28;20038;-82
2021/10/21 12:18:52;;;;;;;0.20;0.00;;;15.00;99.30;;;;;;4972276;28;20548;-82
2021/10/21 12:21:17;;;;;;;0.38;0.10;;;14.90;99.20;;;;;;4952928;28;20118;-82
2021/10/21 12:23:50;;;;;;;1.65;0.10;;;14.80;98.30;;;;;;4971732;28;20042;-80
2021/10/21 12:26:28;;;;;;;0.90;0.17;;;14.80;98.30;;;;;;4974210;28;20836;-83
2021/10/21 12:29:00;;;;;;;0.70;0.10;;;14.90;97.90;;;;;;4975984;28;20030;-83
2021/10/21 12:31:36;;;;;;;1.30;0.20;;;14.80;97.40;;;;;;4978269;28;20514;-82
2021/10/21 12:34:24;;;;;;;0.52;0.10;;;15.00;96.70;;;;;;4981749;28;20122;-82
2021/10/21 12:36:51;;;;;;;1.75;0.30;;;15.10;97.60;;;;;;4968641;28;20042;-82
2021/10/21 12:39:26;;;;;;;0.63;0.15;;;15.30;97.80;;;;;;4967811;28;20061;-82
2021/10/21 12:42:06;;;;;;;1.45;0.17;;;15.20;97.20;;;;;;4954229;28;20031;-84
2021/10/21 12:44:33;;;;;;;0.22;0.03;;;15.30;97.30;;;;;;4966893;28;20023;-82
2021/10/21 12:47:14;;;;;;;0.32;0.13;;;15.20;97.60;;;;;;4961248;28;20070;-84
2021/10/21 12:49:51;;;;;;;0.35;0.10;;;15.20;97.70;;;;;;4965190;28;20066;-82
2021/10/21 12:52:23;;;;;;;1.23;0.10;;;15.20;97.20;;;;;;4975061;28;20121;-83
2021/10/21 12:54:49;;;;;;;;;;;15.30;96.60;;;;;;4961511;28;20050;-82
2021/10/21 12:57:17;;;;;;;0.80;0.05;;;15.40;96.40;;;;;;4978920;28;20276;-83
2021/10/21 12:59:43;;;;;;;2.22;0.70;;;15.40;96.60;;;;;;4956691;29;20071;-83
2021/10/21 13:02:16;;;;;;;1.65;0.17;;;15.60;96.90;;;;;;4968325;28;20031;-82
2021/10/21 13:04:43;;;;;;;0.15;0.00;;;15.50;96.10;;;;;;4973216;28;20058;-82
2021/10/21 13:07:10;;;;;;;0.20;0.00;;;15.60;96.20;;;;;;4958954;28;20039;-82
2021/10/21 13:09:36;;;;;;;0.38;0.10;;;15.60;96.20;;;;;;4956150;28;20066;-82
2021/10/21 13:12:03;;;;;;;0.00;0.00;;;15.60;96.70;;;;;;4973324;28;20049;-83